Time,TemperatureF,DewpointF,PressureIn,WindDirection,WindDirectionDegrees,WindSpeedMPH,WindSpeedGustMPH,Humidity,HourlyPrecipIn,Conditions,Clouds,dailyrainin,SoftwareType,DateUTC
2013-04-18 00:00:00,63.8,63.8,29.71,WNW,294,0.0,0.0,100,0.00,,,0.00,VWS V14.01,2013-04-18 04:00:00,
2013-04-18 00:04:00,63.8,63.8,29.71,WNW,294,0.0,0.0,100,0.00,,,0.00,VWS V14.01,2013-04-18 04:04:00,
2013-04-18 00:09:00,63.8,63.8,29.71,WNW,294,0.0,0.0,100,0.00,,,0.00,VWS V14.01,2013-04-18 04:09:00,
2013-04-18 00:10:00,63.8,63.8,29.71,WNW,294,0.0,0.0,100,0.00,,,0.00,VWS V14.01,2013-04-18 04:10:00,
2013-04-18 00:14:00,63.8,63.8,29.71,NW,312,0.0,0.0,100,0.00,,,0.00,VWS V14.01,2013-04-18 04:14:00,
2013-04-18 00:19:00,64.5,64.5,29.71,NNW,335,0.0,0.0,100,0.00,,,0.00,VWS V14.01,2013-04-18 04:19:00,
2013-04-18 00:20:00,64.5,64.5,29.71,NNW,335,0.0,0.0,100,0.00,,,0.00,VWS V14.01,2013-04-18 04:20:00,
2013-04-18 00:24:00,64.5,64.5,29.71,NNW,335,0.0,0.0,100,0.00,,,0.00,VWS V14.01,2013-04-18 04:24:00,
2013-04-18 00:29:00,64.5,64.5,29.71,NNW,335,0.0,0.0,100,0.00,,,0.00,VWS V14.01,2013-04-18 04:29:00,
2013-04-18 00:30:00,64.5,64.5,29.71,NNW,335,0.0,0.0,100,0.00,,,0.00,VWS V14.01,2013-04-18 04:30:00,
2013-04-18 00:34:00,64.5,64.5,29.71,NNW,335,0.0,0.0,100,0.00,,,0.00,VWS V14.01,2013-04-18 04:34:00,
2013-04-18 00:39:00,64.5,64.5,29.71,NNW,335,0.0,0.0,100,0.00,,,0.00,VWS V14.01,2013-04-18 04:39:00,
2013-04-18 00:44:00,64.1,64.1,29.71,NNW,335,0.0,0.0,100,0.00,,,0.00,VWS V14.01,2013-04-18 04:44:00,
2013-04-18 00:49:00,64.1,64.1,29.71,NNW,335,0.0,0.0,100,0.00,,,0.00,VWS V14.01,2013-04-18 04:49:00,
2013-04-18 00:54:00,63.4,63.4,29.71,NNW,335,0.0,0.0,100,0.00,,,0.00,VWS V14.01,2013-04-18 04:54:00,
2013-04-18 00:59:00,63.4,63.4,29.71,NNW,335,0.0,0.0,100,0.00,,,0.00,VWS V14.01,2013-04-18 04:59:00,
2013-04-18 01:04:00,62.9,62.9,29.71,NNW,335,0.0,0.0,100,0.00,,,0.00,VWS V14.01,2013-04-18 05:04:00,
2013-04-18 01:09:00,62.7,62.7,29.71,NNW,335,0.0,0.0,100,0.00,,,0.00,VWS V14.01,2013-04-18 05:09:00,
2013-04-18 01:10:00,62.7,62.7,29.71,NNW,335,0.0,0.0,100,0.00,,,0.00,VWS V14.01,2013-04-18 05:10:00,
2013-04-18 01:19:00,62.1,62.1,29.71,NNW,335,0.0,0.0,100,0.00,,,0.00,VWS V14.01,2013-04-18 05:19:00,
2013-04-18 01:20:00,62.1,62.1,29.71,NNW,335,0.0,0.0,100,0.00,,,0.00,VWS V14.01,2013-04-18 05:20:00,
2013-04-18 01:29:00,62.0,62.0,29.68,NNW,335,0.0,0.0,100,0.00,,,0.00,VWS V14.01,2013-04-18 05:29:00,
2013-04-18 01:30:00,62.0,62.0,29.68,NNW,335,0.0,0.0,100,0.00,,,0.00,VWS V14.01,2013-04-18 05:30:00,
2013-04-18 01:34:00,61.6,61.6,29.68,NNW,335,0.0,0.0,100,0.00,,,0.00,VWS V14.01,2013-04-18 05:34:00,
2013-04-18 01:40:00,61.6,61.6,29.68,NNW,335,0.0,0.0,100,0.00,,,0.00,VWS V14.01,2013-04-18 05:40:00,
2013-04-18 01:50:00,61.2,61.2,29.68,NNW,335,0.0,0.0,100,0.00,,,0.00,VWS V14.01,2013-04-18 05:50:00,
2013-04-18 01:55:00,61.1,61.1,29.68,NNW,335,0.0,0.0,100,0.00,,,0.00,VWS V14.01,2013-04-18 05:55:00,
2013-04-18 02:00:00,61.1,61.1,29.68,NNW,335,0.0,0.0,100,0.00,,,0.00,VWS V14.01,2013-04-18 06:00:00,
2013-04-18 02:10:00,60.7,60.7,29.68,NNW,335,0.0,0.0,100,0.00,,,0.00,VWS V14.01,2013-04-18 06:10:00,
2013-04-18 02:15:00,60.5,60.5,29.68,NNW,335,0.0,0.0,100,0.00,,,0.00,VWS V14.01,2013-04-18 06:15:00,
2013-04-18 02:20:00,60.5,60.5,29.68,NNW,335,0.0,0.0,100,0.00,,,0.00,VWS V14.01,2013-04-18 06:20:00,
2013-04-18 02:25:00,60.5,60.5,29.68,NNW,335,0.0,0.0,100,0.00,,,0.00,VWS V14.01,2013-04-18 06:25:00,
2013-04-18 02:30:00,60.3,60.3,29.68,NNW,335,0.0,0.0,100,0.00,,,0.00,VWS V14.01,2013-04-18 06:30:00,
2013-04-18 02:35:00,60.3,60.3,29.68,NNW,335,0.0,0.0,100,0.00,,,0.00,VWS V14.01,2013-04-18 06:35:00,
2013-04-18 02:40:00,60.2,60.2,29.68,NNW,343,0.0,0.0,100,0.00,,,0.00,VWS V14.01,2013-04-18 06:40:00,
2013-04-18 02:45:00,60.2,60.2,29.68,NNW,343,0.0,0.0,100,0.00,,,0.00,VWS V14.01,2013-04-18 06:45:00,
2013-04-18 02:50:00,60.2,60.2,29.65,NNW,343,0.0,0.0,100,0.00,,,0.00,VWS V14.01,2013-04-18 06:50:00,
2013-04-18 02:55:00,60.2,60.2,29.65,NNW,343,0.0,0.0,100,0.00,,,0.00,VWS V14.01,2013-04-18 06:55:00,
2013-04-18 03:00:00,60.2,60.2,29.65,NNW,343,0.0,0.0,100,0.00,,,0.00,VWS V14.01,2013-04-18 07:00:00,
2013-04-18 03:05:00,60.3,60.3,29.65,North,357,2.2,2.2,100,0.00,,,0.00,VWS V14.01,2013-04-18 07:05:00,
2013-04-18 03:10:00,60.3,60.3,29.65,North,0,3.1,3.1,100,0.00,,,0.00,VWS V14.01,2013-04-18 07:10:00,
2013-04-18 03:15:00,60.3,60.3,29.65,North,0,0.0,3.1,100,0.00,,,0.00,VWS V14.01,2013-04-18 07:15:00,
2013-04-18 03:20:00,60.3,60.3,29.65,North,353,0.0,3.1,100,0.00,,,0.00,VWS V14.01,2013-04-18 07:20:00,
2013-04-18 03:25:00,60.3,60.3,29.65,North,353,0.0,0.0,100,0.00,,,0.00,VWS V14.01,2013-04-18 07:25:00,
2013-04-18 03:30:00,60.3,60.3,29.65,North,353,0.0,0.0,100,0.00,,,0.00,VWS V14.01,2013-04-18 07:30:00,
2013-04-18 03:35:00,60.3,60.3,29.65,WNW,285,0.0,0.0,100,0.00,,,0.00,VWS V14.01,2013-04-18 07:35:00,
2013-04-18 03:40:00,60.3,60.3,29.65,WNW,285,0.0,0.0,100,0.00,,,0.00,VWS V14.01,2013-04-18 07:40:00,
2013-04-18 03:45:00,60.3,60.3,29.65,WNW,288,0.0,0.0,100,0.00,,,0.00,VWS V14.01,2013-04-18 07:45:00,
2013-04-18 03:50:00,60.3,60.3,29.65,WNW,288,0.0,0.0,100,0.00,,,0.00,VWS V14.01,2013-04-18 07:50:00,
2013-04-18 03:55:00,60.0,60.0,29.65,WNW,288,0.0,0.0,100,0.00,,,0.00,VWS V14.01,2013-04-18 07:55:00,
2013-04-18 04:00:00,59.8,59.8,29.65,WNW,288,0.0,0.0,100,0.00,,,0.00,VWS V14.01,2013-04-18 08:00:00,
2013-04-18 04:05:00,59.6,59.6,29.65,WNW,288,0.0,0.0,100,0.00,,,0.00,VWS V14.01,2013-04-18 08:05:00,
2013-04-18 04:10:00,59.1,59.1,29.65,WNW,288,0.0,0.0,100,0.00,,,0.00,VWS V14.01,2013-04-18 08:10:00,
2013-04-18 04:15:00,59.1,59.1,29.65,WNW,288,0.0,0.0,100,0.00,,,0.00,VWS V14.01,2013-04-18 08:15:00,
2013-04-18 04:20:00,58.7,58.7,29.65,WNW,288,0.0,0.0,100,0.00,,,0.00,VWS V14.01,2013-04-18 08:20:00,
2013-04-18 04:25:00,58.4,58.4,29.65,WNW,288,0.0,0.0,100,0.00,,,0.00,VWS V14.01,2013-04-18 08:25:00,
2013-04-18 04:30:00,58.4,58.4,29.65,WNW,288,0.0,0.0,100,0.00,,,0.00,VWS V14.01,2013-04-18 08:30:00,
2013-04-18 04:35:00,58.4,58.4,29.65,WNW,288,0.0,0.0,100,0.00,,,0.00,VWS V14.01,2013-04-18 08:35:00,
2013-04-18 04:40:00,57.8,57.8,29.65,WNW,288,0.0,0.0,100,0.00,,,0.00,VWS V14.01,2013-04-18 08:40:00,
2013-04-18 04:45:00,57.5,57.5,29.65,WNW,288,0.0,0.0,100,0.00,,,0.00,VWS V14.01,2013-04-18 08:45:00,
2013-04-18 04:50:00,57.5,57.5,29.65,WNW,288,0.0,0.0,100,0.00,,,0.00,VWS V14.01,2013-04-18 08:50:00,
2013-04-18 04:55:00,57.5,57.5,29.65,WNW,288,0.0,0.0,100,0.00,,,0.00,VWS V14.01,2013-04-18 08:55:00,
2013-04-18 05:00:00,57.5,57.5,29.68,WNW,288,0.0,0.0,100,0.00,,,0.00,VWS V14.01,2013-04-18 09:00:00,
2013-04-18 05:05:00,57.3,57.3,29.68,WNW,288,0.0,0.0,100,0.00,,,0.00,VWS V14.01,2013-04-18 09:05:00,
2013-04-18 05:10:00,57.3,57.3,29.68,WNW,288,0.0,0.0,100,0.00,,,0.00,VWS V14.01,2013-04-18 09:10:00,
2013-04-18 05:15:00,56.9,56.9,29.68,WNW,288,0.0,0.0,100,0.00,,,0.00,VWS V14.01,2013-04-18 09:15:00,
2013-04-18 05:20:00,56.9,56.9,29.68,WNW,288,0.0,0.0,100,0.00,,,0.00,VWS V14.01,2013-04-18 09:20:00,
2013-04-18 05:25:00,56.7,56.7,29.68,WNW,288,0.0,0.0,100,0.00,,,0.00,VWS V14.01,2013-04-18 09:25:00,
2013-04-18 05:30:00,56.4,56.4,29.68,WNW,288,0.0,0.0,100,0.00,,,0.00,VWS V14.01,2013-04-18 09:30:00,
2013-04-18 05:35:00,56.2,56.2,29.68,WNW,288,0.0,0.0,100,0.00,,,0.00,VWS V14.01,2013-04-18 09:35:00,
2013-04-18 05:40:00,55.8,55.8,29.68,WNW,288,0.0,0.0,100,0.00,,,0.00,VWS V14.01,2013-04-18 09:40:00,
2013-04-18 05:45:00,55.7,55.7,29.68,WNW,288,0.0,0.0,100,0.00,,,0.00,VWS V14.01,2013-04-18 09:45:00,
2013-04-18 05:50:00,55.7,55.7,29.68,WNW,288,0.0,0.0,100,0.00,,,0.00,VWS V14.01,2013-04-18 09:50:00,
2013-04-18 05:55:00,55.8,55.8,29.68,WNW,288,0.0,0.0,100,0.00,,,0.00,VWS V14.01,2013-04-18 09:55:00,
2013-04-18 06:00:00,55.7,55.7,29.68,WNW,288,0.0,0.0,100,0.00,,,0.00,VWS V14.01,2013-04-18 10:00:00,
2013-04-18 06:05:00,55.5,55.5,29.68,WNW,288,0.0,0.0,100,0.00,,,0.00,VWS V14.01,2013-04-18 10:05:00,
2013-04-18 06:10:00,55.5,55.5,29.68,WNW,288,0.0,0.0,100,0.00,,,0.00,VWS V14.01,2013-04-18 10:10:00,
2013-04-18 06:15:00,55.3,55.3,29.68,WNW,288,0.0,0.0,100,0.00,,,0.00,VWS V14.01,2013-04-18 10:15:00,
2013-04-18 06:20:00,54.9,54.9,29.68,WNW,288,0.0,0.0,100,0.00,,,0.00,VWS V14.01,2013-04-18 10:20:00,
2013-04-18 06:25:00,54.9,54.9,29.65,WNW,288,0.0,0.0,100,0.00,,,0.00,VWS V14.01,2013-04-18 10:25:00,
2013-04-18 06:30:00,54.8,54.8,29.65,WNW,288,0.0,0.0,100,0.00,,,0.00,VWS V14.01,2013-04-18 10:30:00,
2013-04-18 06:35:00,54.6,54.6,29.65,WNW,288,0.0,0.0,100,0.00,,,0.00,VWS V14.01,2013-04-18 10:35:00,
2013-04-18 06:40:00,54.4,54.4,29.65,WNW,288,0.0,0.0,100,0.00,,,0.00,VWS V14.01,2013-04-18 10:40:00,
2013-04-18 06:45:00,54.4,54.4,29.68,WNW,288,0.0,0.0,100,0.00,,,0.00,VWS V14.01,2013-04-18 10:45:00,
2013-04-18 06:50:00,54.4,54.4,29.68,WNW,288,0.0,0.0,100,0.00,,,0.00,VWS V14.01,2013-04-18 10:50:00,
2013-04-18 06:55:00,54.6,54.6,29.68,WNW,288,0.0,0.0,100,0.00,,,0.00,VWS V14.01,2013-04-18 10:55:00,
2013-04-18 07:00:00,54.6,54.6,29.68,WNW,288,0.0,0.0,100,0.00,,,0.00,VWS V14.01,2013-04-18 11:00:00,
2013-04-18 07:05:00,54.6,54.6,29.68,WNW,288,0.0,0.0,100,0.00,,,0.00,VWS V14.01,2013-04-18 11:05:00,
2013-04-18 07:10:00,54.4,54.4,29.68,WNW,288,0.0,0.0,100,0.00,,,0.00,VWS V14.01,2013-04-18 11:10:00,
2013-04-18 07:15:00,54.2,54.2,29.68,WNW,288,0.0,0.0,100,0.00,,,0.00,VWS V14.01,2013-04-18 11:15:00,
2013-04-18 07:20:00,54.2,54.2,29.68,WNW,288,0.0,0.0,100,0.00,,,0.00,VWS V14.01,2013-04-18 11:20:00,
2013-04-18 07:25:00,54.4,54.4,29.68,NW,306,0.0,0.0,100,0.00,,,0.00,VWS V14.01,2013-04-18 11:25:00,
2013-04-18 07:30:00,54.6,54.6,29.68,NW,306,0.0,0.0,100,0.00,,,0.00,VWS V14.01,2013-04-18 11:30:00,
2013-04-18 07:35:00,54.8,54.8,29.68,NW,306,0.0,0.0,100,0.00,,,0.00,VWS V14.01,2013-04-18 11:35:00,
2013-04-18 07:40:00,54.9,54.9,29.68,NW,306,0.0,0.0,100,0.00,,,0.00,VWS V14.01,2013-04-18 11:40:00,
2013-04-18 07:45:00,54.9,54.9,29.68,NW,306,0.0,0.0,100,0.00,,,0.00,VWS V14.01,2013-04-18 11:45:00,
2013-04-18 07:50:00,55.3,55.3,29.68,NW,306,0.0,0.0,100,0.00,,,0.00,VWS V14.01,2013-04-18 11:50:00,
2013-04-18 07:55:00,55.7,55.7,29.68,NW,306,0.0,0.0,100,0.00,,,0.00,VWS V14.01,2013-04-18 11:55:00,
2013-04-18 08:00:00,55.7,55.7,29.68,NW,306,0.0,0.0,100,0.00,,,0.00,VWS V14.01,2013-04-18 12:00:00,
2013-04-18 08:05:00,55.7,55.7,29.68,NW,306,0.0,0.0,100,0.00,,,0.00,VWS V14.01,2013-04-18 12:05:00,
2013-04-18 08:10:00,55.7,55.7,29.68,NW,306,0.0,0.0,100,0.00,,,0.00,VWS V14.01,2013-04-18 12:10:00,
2013-04-18 08:15:00,57.5,57.5,29.68,NW,306,0.0,0.0,100,0.00,,,0.00,VWS V14.01,2013-04-18 12:15:00,
2013-04-18 08:20:00,58.4,58.4,29.68,NW,313,0.0,0.0,100,0.00,,,0.00,VWS V14.01,2013-04-18 12:20:00,
2013-04-18 08:25:00,58.5,58.5,29.68,West,264,0.0,0.0,100,0.00,,,0.00,VWS V14.01,2013-04-18 12:25:00,
2013-04-18 08:30:00,60.3,60.3,29.68,WNW,288,0.0,0.0,100,0.00,,,0.00,VWS V14.01,2013-04-18 12:30:00,
2013-04-18 08:35:00,60.5,60.5,29.68,WNW,288,0.0,0.0,100,0.00,,,0.00,VWS V14.01,2013-04-18 12:35:00,
2013-04-18 08:40:00,61.4,61.4,29.68,North,353,0.0,0.0,100,0.00,,,0.00,VWS V14.01,2013-04-18 12:40:00,
2013-04-18 08:45:00,61.6,61.6,29.68,North,4,0.0,0.0,100,0.00,,,0.00,VWS V14.01,2013-04-18 12:45:00,
2013-04-18 08:50:00,62.0,62.0,29.68,West,274,0.0,0.0,100,0.00,,,0.00,VWS V14.01,2013-04-18 12:50:00,
2013-04-18 08:55:00,62.7,62.7,29.68,North,353,0.0,0.0,100,0.00,,,0.00,VWS V14.01,2013-04-18 12:55:00,
2013-04-18 09:00:00,62.9,62.9,29.68,North,353,0.0,0.0,100,0.00,,,0.00,VWS V14.01,2013-04-18 13:00:00,
2013-04-18 09:01:00,62.9,62.9,29.68,North,353,0.0,0.0,100,0.00,,,0.00,VWS V14.01,2013-04-18 13:01:00,
2013-04-18 09:06:00,63.4,63.4,29.68,North,10,0.0,0.0,100,0.00,,,0.00,VWS V14.01,2013-04-18 13:06:00,
2013-04-18 09:10:00,63.4,63.4,29.68,NNE,25,0.0,0.0,100,0.00,,,0.00,VWS V14.01,2013-04-18 13:10:00,
2013-04-18 09:11:00,63.4,63.4,29.68,West,276,0.0,0.0,100,0.00,,,0.00,VWS V14.01,2013-04-18 13:11:00,
2013-04-18 09:16:00,63.6,63.6,29.68,West,276,0.0,0.0,100,0.00,,,0.00,VWS V14.01,2013-04-18 13:16:00,
2013-04-18 09:21:00,63.6,63.6,29.68,North,1,3.1,3.1,100,0.00,,,0.00,VWS V14.01,2013-04-18 13:21:00,
2013-04-18 09:26:00,63.9,63.9,29.68,West,265,0.0,3.1,100,0.00,,,0.00,VWS V14.01,2013-04-18 13:26:00,
2013-04-18 09:30:00,64.1,64.1,29.68,NE,37,4.0,4.0,100,0.00,,,0.00,VWS V14.01,2013-04-18 13:30:00,
2013-04-18 09:31:00,64.1,64.1,29.68,NE,37,4.0,4.0,100,0.00,,,0.00,VWS V14.01,2013-04-18 13:31:00,
2013-04-18 09:36:00,64.1,64.1,29.68,North,357,0.0,4.0,100,0.00,,,0.00,VWS V14.01,2013-04-18 13:36:00,
2013-04-18 09:40:00,64.5,64.5,29.68,WSW,241,0.0,4.0,100,0.00,,,0.00,VWS V14.01,2013-04-18 13:40:00,
2013-04-18 09:41:00,64.5,64.5,29.68,WSW,241,0.0,0.0,100,0.00,,,0.00,VWS V14.01,2013-04-18 13:41:00,
2013-04-18 09:46:00,64.7,64.7,29.68,NNE,28,0.0,2.7,100,0.00,,,0.00,VWS V14.01,2013-04-18 13:46:00,
2013-04-18 09:51:00,65.0,65.0,29.68,NNE,28,0.0,0.0,100,0.00,,,0.00,VWS V14.01,2013-04-18 13:51:00,
2013-04-18 09:56:00,65.7,65.7,29.68,NNE,28,0.0,0.0,100,0.00,,,0.00,VWS V14.01,2013-04-18 13:56:00,
2013-04-18 10:00:00,66.3,66.3,29.68,North,357,0.0,0.0,100,0.00,,,0.00,VWS V14.01,2013-04-18 14:00:00,
2013-04-18 10:01:00,66.3,66.3,29.68,NE,37,3.6,3.6,100,0.00,,,0.00,VWS V14.01,2013-04-18 14:01:00,
2013-04-18 10:06:00,66.5,66.5,29.68,NNE,27,4.0,4.0,100,0.00,,,0.00,VWS V14.01,2013-04-18 14:06:00,
2013-04-18 10:11:00,66.5,66.5,29.68,NNE,27,2.7,2.7,100,0.00,,,0.00,VWS V14.01,2013-04-18 14:11:00,
2013-04-18 10:16:00,69.0,69.0,29.68,NNE,27,2.7,2.7,100,0.00,,,0.00,VWS V14.01,2013-04-18 14:16:00,
2013-04-18 10:20:00,69.5,69.5,29.68,NNE,27,2.7,2.7,100,0.00,,,0.00,VWS V14.01,2013-04-18 14:20:00,
2013-04-18 10:21:00,69.5,69.5,29.68,NNE,27,2.7,2.7,100,0.00,,,0.00,VWS V14.01,2013-04-18 14:21:00,
2013-04-18 10:26:00,70.1,70.1,29.68,NE,37,3.1,3.1,100,0.00,,,0.00,VWS V14.01,2013-04-18 14:26:00,
2013-04-18 10:40:00,71.5,71.5,29.68,North,1,4.0,6.3,100,0.00,,,0.00,VWS V14.01,2013-04-18 14:40:00,
2013-04-18 10:41:00,71.5,71.5,29.68,North,1,4.0,4.0,100,0.00,,,0.00,VWS V14.01,2013-04-18 14:41:00,
2013-04-18 10:46:00,71.5,71.5,29.68,North,353,0.0,4.0,100,0.00,,,0.00,VWS V14.01,2013-04-18 14:46:00,
2013-04-18 10:51:00,71.9,71.9,29.68,NNW,344,3.6,3.6,100,0.00,,,0.00,VWS V14.01,2013-04-18 14:51:00,
2013-04-18 10:56:00,72.2,72.2,29.68,NNW,337,2.7,4.0,100,0.00,,,0.00,VWS V14.01,2013-04-18 14:56:00,
2013-04-18 11:01:00,72.4,72.1,29.68,NNW,337,2.7,2.7,99,0.00,,,0.00,VWS V14.01,2013-04-18 15:01:00,
2013-04-18 11:06:00,74.0,71.6,29.71,NNE,17,8.3,8.3,92,0.00,,,0.00,VWS V14.01,2013-04-18 15:06:00,
2013-04-18 11:10:00,74.0,71.6,29.71,SE,142,0.0,8.3,92,0.00,,,0.00,VWS V14.01,2013-04-18 15:10:00,
2013-04-18 11:11:00,74.0,71.6,29.71,SE,142,0.0,0.0,92,0.00,,,0.00,VWS V14.01,2013-04-18 15:11:00,
2013-04-18 11:16:00,74.7,69.2,29.71,NNW,344,3.6,3.6,83,0.00,,,0.00,VWS V14.01,2013-04-18 15:16:00,
2013-04-18 11:21:00,74.9,70.9,29.71,NNW,328,6.3,6.3,87,0.00,,,0.00,VWS V14.01,2013-04-18 15:21:00,
2013-04-18 11:26:00,74.7,68.3,29.71,NNW,328,6.3,6.3,80,0.00,,,0.00,VWS V14.01,2013-04-18 15:26:00,
2013-04-18 11:30:00,74.7,68.3,29.71,NE,55,3.6,6.3,80,0.00,,,0.00,VWS V14.01,2013-04-18 15:30:00,
2013-04-18 11:36:00,73.8,67.5,29.68,NE,37,8.1,8.1,80,0.00,,,0.00,VWS V14.01,2013-04-18 15:36:00,
2013-04-18 11:42:00,73.3,70.1,29.68,NNE,13,3.6,3.6,90,0.00,,,0.00,VWS V14.01,2013-04-18 15:42:00,
2013-04-18 11:47:00,73.3,70.1,29.68,NNE,25,5.8,5.8,90,0.00,,,0.00,VWS V14.01,2013-04-18 15:47:00,
2013-04-18 11:50:00,73.7,72.6,29.68,NNE,25,5.8,5.8,97,0.00,,,0.00,VWS V14.01,2013-04-18 15:50:00,
2013-04-18 11:52:00,73.7,72.6,29.68,NNE,25,5.8,5.8,97,0.00,,,0.00,VWS V14.01,2013-04-18 15:52:00,
2013-04-18 11:57:00,75.8,66.8,29.68,NNE,14,10.1,10.1,74,0.00,,,0.00,VWS V14.01,2013-04-18 15:57:00,
2013-04-18 12:00:00,75.8,66.8,29.68,NNE,18,5.4,10.1,74,0.00,,,0.00,VWS V14.01,2013-04-18 16:00:00,
2013-04-18 12:02:00,75.8,66.8,29.68,NNE,27,7.6,7.6,74,0.00,,,0.00,VWS V14.01,2013-04-18 16:02:00,
2013-04-18 12:07:00,75.8,66.8,29.68,NNE,27,7.6,7.6,74,0.00,,,0.00,VWS V14.01,2013-04-18 16:07:00,
2013-04-18 12:10:00,75.8,66.8,29.68,ENE,57,2.7,7.6,74,0.00,,,0.00,VWS V14.01,2013-04-18 16:10:00,
2013-04-18 12:12:00,75.8,66.8,29.68,ENE,57,2.7,2.7,74,0.00,,,0.00,VWS V14.01,2013-04-18 16:12:00,
2013-04-18 12:17:00,76.5,66.6,29.68,ENE,57,2.7,2.7,71,0.00,,,0.00,VWS V14.01,2013-04-18 16:17:00,
2013-04-18 12:20:00,76.5,66.6,29.68,ENE,57,2.7,2.7,71,0.00,,,0.00,VWS V14.01,2013-04-18 16:20:00,
2013-04-18 12:22:00,76.5,66.6,29.68,NNW,343,4.0,4.0,71,0.00,,,0.00,VWS V14.01,2013-04-18 16:22:00,
2013-04-18 12:27:00,75.3,68.0,29.68,NNE,13,6.3,6.3,78,0.00,,,0.00,VWS V14.01,2013-04-18 16:27:00,
2013-04-18 12:30:00,75.3,68.0,29.68,North,353,4.0,6.3,78,0.00,,,0.00,VWS V14.01,2013-04-18 16:30:00,
2013-04-18 12:32:00,75.3,68.0,29.68,North,353,4.0,4.0,78,0.00,,,0.00,VWS V14.01,2013-04-18 16:32:00,
2013-04-18 12:37:00,74.4,66.3,29.68,NNW,344,4.9,4.9,76,0.00,,,0.00,VWS V14.01,2013-04-18 16:37:00,
2013-04-18 12:40:00,75.1,67.0,29.68,North,3,5.8,5.8,76,0.00,,,0.00,VWS V14.01,2013-04-18 16:40:00,
2013-04-18 12:42:00,75.1,67.0,29.68,North,3,5.8,5.8,76,0.00,,,0.00,VWS V14.01,2013-04-18 16:42:00,
2013-04-18 12:47:00,75.1,67.0,29.68,NNE,20,4.0,5.8,76,0.00,,,0.00,VWS V14.01,2013-04-18 16:47:00,
2013-04-18 12:52:00,75.8,66.8,29.68,NW,319,4.0,4.0,74,0.00,,,0.00,VWS V14.01,2013-04-18 16:52:00,
2013-04-18 12:57:00,75.8,66.8,29.68,NNE,29,3.1,4.0,74,0.00,,,0.00,VWS V14.01,2013-04-18 16:57:00,
2013-04-18 13:00:00,77.3,67.3,29.68,NNE,29,3.1,4.0,71,0.00,,,0.00,VWS V14.01,2013-04-18 17:00:00,
2013-04-18 13:02:00,77.3,67.3,29.68,SSW,206,2.7,3.1,71,0.00,,,0.00,VWS V14.01,2013-04-18 17:02:00,
2013-04-18 13:07:00,78.0,67.0,29.68,NE,38,4.0,4.0,69,0.00,,,0.00,VWS V14.01,2013-04-18 17:07:00,
2013-04-18 13:10:00,78.0,67.0,29.65,NE,38,4.0,4.0,69,0.00,,,0.00,VWS V14.01,2013-04-18 17:10:00,
2013-04-18 13:12:00,78.0,67.0,29.65,NE,38,4.0,4.0,69,0.00,,,0.00,VWS V14.01,2013-04-18 17:12:00,
2013-04-18 13:17:00,77.4,67.4,29.65,WNW,290,2.2,4.0,71,0.00,,,0.00,VWS V14.01,2013-04-18 17:17:00,
2013-04-18 13:20:00,77.4,67.4,29.65,ENE,69,4.9,4.9,71,0.00,,,0.00,VWS V14.01,2013-04-18 17:20:00,
2013-04-18 13:22:00,77.4,67.4,29.65,ENE,69,4.9,4.9,71,0.00,,,0.00,VWS V14.01,2013-04-18 17:22:00,
2013-04-18 13:27:00,77.8,64.8,29.65,ENE,69,4.9,4.9,64,0.00,,,0.00,VWS V14.01,2013-04-18 17:27:00,
2013-04-18 13:32:00,77.6,65.7,29.65,NNE,19,4.0,4.0,67,0.00,,,0.00,VWS V14.01,2013-04-18 17:32:00,
2013-04-18 13:37:00,77.6,65.7,29.65,NNE,19,4.0,4.0,67,0.00,,,0.00,VWS V14.01,2013-04-18 17:37:00,
2013-04-18 13:40:00,76.5,64.7,29.65,North,357,6.3,6.3,67,0.00,,,0.00,VWS V14.01,2013-04-18 17:40:00,
2013-04-18 13:42:00,76.4,64.5,29.65,North,357,6.3,6.3,67,0.00,,,0.00,VWS V14.01,2013-04-18 17:42:00,
2013-04-18 13:47:00,76.4,63.5,29.65,NNE,24,6.3,6.3,64,0.00,,,0.00,VWS V14.01,2013-04-18 17:47:00,
2013-04-18 13:50:00,76.4,63.5,29.65,NNE,24,6.3,6.3,64,0.00,,,0.00,VWS V14.01,2013-04-18 17:50:00,
2013-04-18 13:52:00,76.4,63.5,29.65,NNE,24,6.3,6.3,64,0.00,,,0.00,VWS V14.01,2013-04-18 17:52:00,
2013-04-18 13:57:00,76.9,63.0,29.65,NNW,333,3.1,6.3,62,0.00,,,0.00,VWS V14.01,2013-04-18 17:57:00,
2013-04-18 14:00:00,76.9,63.0,29.65,NNW,333,3.1,6.3,62,0.00,,,0.00,VWS V14.01,2013-04-18 18:00:00,
2013-04-18 14:02:00,76.9,63.0,29.65,NNW,333,3.1,3.1,62,0.00,,,0.00,VWS V14.01,2013-04-18 18:02:00,
2013-04-18 14:07:00,77.8,66.8,29.65,NE,38,4.0,4.0,69,0.00,,,0.00,VWS V14.01,2013-04-18 18:07:00,
2013-04-18 14:10:00,78.7,65.7,29.65,NNW,333,6.3,6.3,64,0.00,,,0.00,VWS V14.01,2013-04-18 18:10:00,
2013-04-18 14:12:00,78.7,65.7,29.65,NNE,30,8.3,8.3,64,0.00,,,0.00,VWS V14.01,2013-04-18 18:12:00,
2013-04-18 14:17:00,78.7,65.7,29.65,NNE,30,8.3,8.3,64,0.00,,,0.00,VWS V14.01,2013-04-18 18:17:00,
2013-04-18 14:20:00,78.7,65.7,29.65,NNW,337,6.3,8.3,64,0.00,,,0.00,VWS V14.01,2013-04-18 18:20:00,
2013-04-18 14:22:00,78.7,65.7,29.65,NNW,333,6.3,6.3,64,0.00,,,0.00,VWS V14.01,2013-04-18 18:22:00,
2013-04-18 14:27:00,78.0,61.8,29.65,NNW,333,6.3,6.3,58,0.00,,,0.00,VWS V14.01,2013-04-18 18:27:00,
2013-04-18 14:30:00,78.0,61.8,29.65,North,1,2.2,6.3,58,0.00,,,0.00,VWS V14.01,2013-04-18 18:30:00,
2013-04-18 14:32:00,78.5,63.4,29.65,North,1,2.2,2.2,60,0.00,,,0.00,VWS V14.01,2013-04-18 18:32:00,
2013-04-18 14:37:00,79.1,62.8,29.65,NNE,15,5.8,6.3,58,0.00,,,0.00,VWS V14.01,2013-04-18 18:37:00,
2013-04-18 14:40:00,79.1,62.8,29.65,NNE,15,5.8,6.3,58,0.00,,,0.00,VWS V14.01,2013-04-18 18:40:00,
2013-04-18 14:47:00,79.1,62.8,29.62,North,353,3.1,7.6,58,0.00,,,0.00,VWS V14.01,2013-04-18 18:47:00,
2013-04-18 14:52:00,79.2,63.0,29.62,ENE,64,4.9,4.9,58,0.00,,,0.00,VWS V14.01,2013-04-18 18:52:00,
2013-04-18 14:57:00,79.2,63.0,29.62,ENE,64,4.9,4.9,58,0.00,,,0.00,VWS V14.01,2013-04-18 18:57:00,
2013-04-18 15:00:00,77.3,65.3,29.62,ENE,64,4.9,4.9,67,0.00,,,0.00,VWS V14.01,2013-04-18 19:00:00,
2013-04-18 15:02:00,77.3,65.3,29.62,East,84,4.9,8.7,67,0.00,,,0.00,VWS V14.01,2013-04-18 19:02:00,
2013-04-18 15:07:00,77.3,65.3,29.62,East,84,4.9,8.7,67,0.00,,,0.00,VWS V14.01,2013-04-18 19:07:00,
2013-04-18 15:10:00,77.3,65.3,29.62,East,84,4.9,8.7,67,0.00,,,0.00,VWS V14.01,2013-04-18 19:10:00,
2013-04-18 15:12:00,77.3,65.3,29.62,North,353,5.8,5.8,67,0.00,,,0.00,VWS V14.01,2013-04-18 19:12:00,
2013-04-18 15:17:00,74.6,69.0,29.62,SE,129,3.1,5.8,83,0.00,,,0.00,VWS V14.01,2013-04-18 19:17:00,
2013-04-18 15:20:00,75.3,68.9,29.62,SE,129,3.1,5.8,80,0.00,,,0.00,VWS V14.01,2013-04-18 19:20:00,
2013-04-18 15:22:00,75.3,68.9,29.62,North,1,6.3,6.3,80,0.00,,,0.00,VWS V14.01,2013-04-18 19:22:00,
2013-04-18 15:27:00,76.0,68.7,29.62,ENE,62,3.1,6.3,78,0.00,,,0.00,VWS V14.01,2013-04-18 19:27:00,
2013-04-18 15:32:00,76.0,68.7,29.62,North,5,7.6,8.7,78,0.00,,,0.00,VWS V14.01,2013-04-18 19:32:00,
2013-04-18 15:37:00,76.0,68.7,29.62,SW,224,3.1,8.7,78,0.00,,,0.00,VWS V14.01,2013-04-18 19:37:00,
2013-04-18 15:40:00,76.0,68.7,29.62,SE,137,8.1,8.7,78,0.00,,,0.00,VWS V14.01,2013-04-18 19:40:00,
2013-04-18 15:42:00,78.7,68.6,29.62,North,353,3.6,8.1,71,0.00,,,0.00,VWS V14.01,2013-04-18 19:42:00,
2013-04-18 15:47:00,78.5,66.5,29.62,NE,47,3.1,8.1,67,0.00,,,0.00,VWS V14.01,2013-04-18 19:47:00,
2013-04-18 15:52:00,78.0,65.0,29.62,NNE,16,8.3,8.3,64,0.00,,,0.00,VWS V14.01,2013-04-18 19:52:00,
2013-04-18 15:57:00,78.0,65.0,29.62,NE,34,8.7,8.7,64,0.00,,,0.00,VWS V14.01,2013-04-18 19:57:00,
2013-04-18 16:00:00,78.5,62.3,29.62,NE,34,8.7,8.7,58,0.00,,,0.00,VWS V14.01,2013-04-18 20:00:00,
2013-04-18 16:07:00,78.9,62.6,29.62,NNE,17,4.9,8.7,58,0.00,,,0.00,VWS V14.01,2013-04-18 20:07:00,
2013-04-18 16:10:00,78.9,62.6,29.62,North,2,6.3,12.3,58,0.00,,,0.00,VWS V14.01,2013-04-18 20:10:00,
2013-04-18 16:12:00,78.9,62.6,29.62,North,9,2.7,6.3,58,0.00,,,0.00,VWS V14.01,2013-04-18 20:12:00,
2013-04-18 16:17:00,79.1,62.8,29.62,NE,42,5.8,6.3,58,0.00,,,0.00,VWS V14.01,2013-04-18 20:17:00,
2013-04-18 16:20:00,79.1,62.8,29.62,NNE,19,8.1,8.1,58,0.00,,,0.00,VWS V14.01,2013-04-18 20:20:00,
2013-04-18 16:22:00,79.1,62.8,29.62,NNE,28,8.1,11.0,58,0.00,,,0.00,VWS V14.01,2013-04-18 20:22:00,
2013-04-18 16:27:00,79.1,62.8,29.59,NNE,28,8.1,11.0,58,0.00,,,0.00,VWS V14.01,2013-04-18 20:27:00,
2013-04-18 16:32:00,78.0,61.8,29.59,NNE,28,8.1,8.1,58,0.00,,,0.00,VWS V14.01,2013-04-18 20:32:00,
2013-04-18 16:37:00,78.0,61.8,29.59,North,357,5.4,8.1,58,0.00,,,0.00,VWS V14.01,2013-04-18 20:37:00,
2013-04-18 16:40:00,78.0,61.8,29.59,NNE,17,4.0,8.1,58,0.00,,,0.00,VWS V14.01,2013-04-18 20:40:00,
2013-04-18 16:42:00,77.1,63.1,29.59,NNE,17,4.0,4.0,62,0.00,,,0.00,VWS V14.01,2013-04-18 20:42:00,
2013-04-18 16:47:00,77.1,63.1,29.59,NNE,32,3.6,6.3,62,0.00,,,0.00,VWS V14.01,2013-04-18 20:47:00,
2013-04-18 16:50:00,77.1,63.1,29.59,NNW,342,3.1,6.3,62,0.00,,,0.00,VWS V14.01,2013-04-18 20:50:00,
2013-04-18 16:52:00,77.1,63.1,29.59,NNE,33,8.3,8.3,62,0.00,,,0.00,VWS V14.01,2013-04-18 20:52:00,
2013-04-18 16:57:00,78.5,62.3,29.59,NNE,31,7.6,8.3,58,0.00,,,0.00,VWS V14.01,2013-04-18 20:57:00,
2013-04-18 17:00:00,78.7,61.3,29.59,NNE,31,7.6,8.3,55,0.00,,,0.00,VWS V14.01,2013-04-18 21:00:00,
2013-04-18 17:02:00,78.7,61.3,29.59,North,353,3.6,7.6,55,0.00,,,0.00,VWS V14.01,2013-04-18 21:02:00,
2013-04-18 17:08:00,78.3,62.1,29.59,NNW,334,6.7,7.6,58,0.00,,,0.00,VWS V14.01,2013-04-18 21:08:00,
2013-04-18 17:10:00,78.5,61.1,29.59,North,10,5.4,7.6,55,0.00,,,0.00,VWS V14.01,2013-04-18 21:10:00,
2013-04-18 17:13:00,78.5,61.1,29.59,NNE,24,8.3,8.3,55,0.00,,,0.00,VWS V14.01,2013-04-18 21:13:00,
2013-04-18 17:18:00,78.7,60.1,29.59,NE,38,7.6,8.3,53,0.00,,,0.00,VWS V14.01,2013-04-18 21:18:00,
2013-04-18 17:20:00,78.7,60.1,29.59,NE,38,7.6,8.3,53,0.00,,,0.00,VWS V14.01,2013-04-18 21:20:00,
2013-04-18 17:23:00,78.7,60.1,29.59,NNE,19,5.8,7.6,53,0.00,,,0.00,VWS V14.01,2013-04-18 21:23:00,
2013-04-18 17:28:00,78.7,61.3,29.59,ENE,75,6.3,7.6,55,0.00,,,0.00,VWS V14.01,2013-04-18 21:28:00,
2013-04-18 17:33:00,78.7,61.3,29.59,NE,41,8.1,8.1,55,0.00,,,0.00,VWS V14.01,2013-04-18 21:33:00,
2013-04-18 17:38:00,78.9,59.0,29.56,NNE,32,9.2,9.2,51,0.00,,,0.00,VWS V14.01,2013-04-18 21:38:00,
2013-04-18 17:40:00,78.9,59.0,29.56,NNE,21,5.8,9.2,51,0.00,,,0.00,VWS V14.01,2013-04-18 21:40:00,
2013-04-18 17:43:00,78.9,60.3,29.56,NNE,28,8.1,8.1,53,0.00,,,0.00,VWS V14.01,2013-04-18 21:43:00,
2013-04-18 17:48:00,78.9,60.3,29.56,NE,45,5.4,8.1,53,0.00,,,0.00,VWS V14.01,2013-04-18 21:48:00,
2013-04-18 17:50:00,78.9,60.3,29.56,North,5,2.7,8.1,53,0.00,,,0.00,VWS V14.01,2013-04-18 21:50:00,
2013-04-18 17:53:00,79.2,59.3,29.56,North,5,2.7,2.7,51,0.00,,,0.00,VWS V14.01,2013-04-18 21:53:00,
2013-04-18 17:58:00,79.2,59.3,29.56,NE,49,3.6,6.3,51,0.00,,,0.00,VWS V14.01,2013-04-18 21:58:00,
2013-04-18 18:00:00,79.2,60.6,29.56,NE,49,3.6,6.3,53,0.00,,,0.00,VWS V14.01,2013-04-18 22:00:00,
2013-04-18 18:03:00,79.6,60.9,29.56,NNE,32,5.8,5.8,53,0.00,,,0.00,VWS V14.01,2013-04-18 22:03:00,
2013-04-18 18:08:00,79.6,59.7,29.56,NW,314,2.7,5.8,51,0.00,,,0.00,VWS V14.01,2013-04-18 22:08:00,
2013-04-18 18:10:00,79.6,59.7,29.56,North,357,4.0,5.8,51,0.00,,,0.00,VWS V14.01,2013-04-18 22:10:00,
2013-04-18 18:13:00,79.6,59.7,29.56,North,357,2.7,5.4,51,0.00,,,0.00,VWS V14.01,2013-04-18 22:13:00,
2013-04-18 18:18:00,80.0,60.0,29.56,NNW,335,2.7,5.4,51,0.00,,,0.00,VWS V14.01,2013-04-18 22:18:00,
2013-04-18 18:20:00,80.0,60.0,29.56,NNW,335,2.7,5.4,51,0.00,,,0.00,VWS V14.01,2013-04-18 22:20:00,
2013-04-18 18:28:00,78.0,61.8,29.56,North,353,3.6,3.6,58,0.00,,,0.00,VWS V14.01,2013-04-18 22:28:00,
2013-04-18 18:30:00,78.0,61.8,29.56,North,8,4.0,4.0,58,0.00,,,0.00,VWS V14.01,2013-04-18 22:30:00,
2013-04-18 18:33:00,78.0,61.8,29.56,NNE,15,3.1,4.0,58,0.00,,,0.00,VWS V14.01,2013-04-18 22:33:00,
2013-04-18 18:38:00,78.0,61.8,29.56,NNE,21,0.0,4.0,58,0.00,,,0.00,VWS V14.01,2013-04-18 22:38:00,
2013-04-18 18:40:00,78.0,61.8,29.56,NNE,19,4.0,4.0,58,0.00,,,0.00,VWS V14.01,2013-04-18 22:40:00,
2013-04-18 18:48:00,76.5,64.7,29.56,NW,318,0.0,4.0,67,0.00,,,0.00,VWS V14.01,2013-04-18 22:48:00,
2013-04-18 18:50:00,76.5,64.7,29.56,North,353,2.7,4.0,67,0.00,,,0.00,VWS V14.01,2013-04-18 22:50:00,
2013-04-18 18:53:00,77.3,66.3,29.56,NE,36,3.6,3.6,69,0.00,,,0.00,VWS V14.01,2013-04-18 22:53:00,
2013-04-18 18:58:00,77.3,66.3,29.56,North,353,3.1,3.6,69,0.00,,,0.00,VWS V14.01,2013-04-18 22:58:00,
2013-04-18 19:00:00,77.3,66.3,29.56,North,353,3.1,3.6,69,0.00,,,0.00,VWS V14.01,2013-04-18 23:00:00,
2013-04-18 19:03:00,77.3,66.3,29.56,NNE,27,2.7,3.1,69,0.00,,,0.00,VWS V14.01,2013-04-18 23:03:00,
2013-04-18 19:08:00,77.1,66.1,29.56,NNE,15,3.1,3.1,69,0.00,,,0.00,VWS V14.01,2013-04-18 23:08:00,
2013-04-18 19:10:00,77.1,66.1,29.56,North,10,0.0,3.1,69,0.00,,,0.00,VWS V14.01,2013-04-18 23:10:00,
2013-04-18 19:13:00,77.1,66.1,29.56,North,10,0.0,0.0,69,0.00,,,0.00,VWS V14.01,2013-04-18 23:13:00,
2013-04-18 19:18:00,76.5,65.6,29.56,NNW,337,5.8,5.8,69,0.00,,,0.00,VWS V14.01,2013-04-18 23:18:00,
2013-04-18 19:20:00,76.4,65.4,29.56,North,11,4.0,5.8,69,0.00,,,0.00,VWS V14.01,2013-04-18 23:20:00,
2013-04-18 19:28:00,76.4,65.4,29.56,North,353,5.4,5.4,69,0.00,,,0.00,VWS V14.01,2013-04-18 23:28:00,
2013-04-18 19:33:00,76.4,65.4,29.56,North,353,2.2,5.4,69,0.00,,,0.00,VWS V14.01,2013-04-18 23:33:00,
2013-04-18 19:38:00,74.9,65.9,29.56,NNW,337,3.6,5.4,74,0.00,,,0.00,VWS V14.01,2013-04-18 23:38:00,
2013-04-18 19:40:00,74.9,65.9,29.56,NNW,337,3.6,5.4,74,0.00,,,0.00,VWS V14.01,2013-04-18 23:40:00,
2013-04-18 19:43:00,74.4,66.3,29.56,NNE,15,4.9,4.9,76,0.00,,,0.00,VWS V14.01,2013-04-18 23:43:00,
2013-04-18 19:48:00,74.2,66.1,29.56,WSW,253,3.6,5.4,76,0.00,,,0.00,VWS V14.01,2013-04-18 23:48:00,
2013-04-18 19:50:00,74.2,66.1,29.56,North,353,4.0,5.4,76,0.00,,,0.00,VWS V14.01,2013-04-18 23:50:00,
2013-04-18 19:53:00,74.2,66.1,29.56,North,353,4.0,4.0,76,0.00,,,0.00,VWS V14.01,2013-04-18 23:53:00,
2013-04-18 19:58:00,74.2,66.1,29.56,NW,325,3.6,4.0,76,0.00,,,0.00,VWS V14.01,2013-04-18 23:58:00,
2013-04-18 20:00:00,73.1,66.8,29.56,NW,325,3.6,4.0,80,0.00,,,0.00,VWS V14.01,2013-04-19 00:00:00,
2013-04-18 20:03:00,73.1,66.8,29.56,North,357,3.1,3.6,80,0.00,,,0.00,VWS V14.01,2013-04-19 00:03:00,
2013-04-18 20:08:00,73.1,66.8,29.56,North,10,2.2,3.6,80,0.00,,,0.00,VWS V14.01,2013-04-19 00:08:00,
2013-04-18 20:10:00,72.9,66.6,29.56,North,10,2.2,3.6,80,0.00,,,0.00,VWS V14.01,2013-04-19 00:10:00,
2013-04-18 20:13:00,72.9,66.6,29.56,North,1,2.7,3.1,80,0.00,,,0.00,VWS V14.01,2013-04-19 00:13:00,
2013-04-18 20:18:00,72.9,66.6,29.56,NNW,337,3.1,3.6,80,0.00,,,0.00,VWS V14.01,2013-04-19 00:18:00,
2013-04-18 20:20:00,72.9,66.6,29.56,NNW,337,3.1,3.6,80,0.00,,,0.00,VWS V14.01,2013-04-19 00:20:00,
2013-04-18 20:28:00,72.9,66.6,29.56,NNE,25,2.7,3.1,80,0.00,,,0.00,VWS V14.01,2013-04-19 00:28:00,
2013-04-18 20:30:00,72.9,66.6,29.56,North,8,2.2,3.1,80,0.00,,,0.00,VWS V14.01,2013-04-19 00:30:00,
2013-04-18 20:38:00,72.9,66.6,29.56,NNE,25,3.1,3.1,80,0.00,,,0.00,VWS V14.01,2013-04-19 00:38:00,
2013-04-18 20:40:00,72.9,66.6,29.56,North,357,2.2,3.1,80,0.00,,,0.00,VWS V14.01,2013-04-19 00:40:00,
2013-04-18 20:43:00,72.9,66.6,29.56,NW,320,0.0,2.2,80,0.00,,,0.00,VWS V14.01,2013-04-19 00:43:00,
2013-04-18 20:48:00,72.9,66.6,29.56,North,8,2.7,5.4,80,0.00,,,0.00,VWS V14.01,2013-04-19 00:48:00,
2013-04-18 20:50:00,72.9,66.6,29.56,North,8,2.7,5.4,80,0.00,,,0.00,VWS V14.01,2013-04-19 00:50:00,
2013-04-18 20:53:00,72.9,66.6,29.56,NE,46,2.7,2.7,80,0.00,,,0.00,VWS V14.01,2013-04-19 00:53:00,
2013-04-18 20:58:00,72.9,66.6,29.56,NE,40,3.1,3.1,80,0.00,,,0.00,VWS V14.01,2013-04-19 00:58:00,
2013-04-18 21:03:00,72.9,66.6,29.56,North,11,3.1,3.1,80,0.00,,,0.00,VWS V14.01,2013-04-19 01:03:00,
2013-04-18 21:08:00,72.9,66.6,29.59,NNW,331,4.0,4.0,80,0.00,,,0.00,VWS V14.01,2013-04-19 01:08:00,
2013-04-18 21:10:00,72.9,66.6,29.59,NNW,331,4.0,4.0,80,0.00,,,0.00,VWS V14.01,2013-04-19 01:10:00,
2013-04-18 21:13:00,72.9,66.6,29.59,NNW,331,4.0,4.0,80,0.00,,,0.00,VWS V14.01,2013-04-19 01:13:00,
2013-04-18 21:18:00,72.9,66.6,29.59,NNW,339,3.6,4.9,80,0.00,,,0.00,VWS V14.01,2013-04-19 01:18:00,
2013-04-18 21:20:00,72.9,66.6,29.56,NNW,339,3.6,4.9,80,0.00,,,0.00,VWS V14.01,2013-04-19 01:20:00,
2013-04-18 21:28:00,72.9,66.6,29.56,NW,323,3.6,5.4,80,0.00,,,0.00,VWS V14.01,2013-04-19 01:28:00,
2013-04-18 21:30:00,72.9,66.6,29.56,NW,323,3.6,5.4,80,0.00,,,0.00,VWS V14.01,2013-04-19 01:30:00,
2013-04-18 21:33:00,72.9,66.6,29.59,NNE,28,4.0,4.0,80,0.00,,,0.00,VWS V14.01,2013-04-19 01:33:00,
2013-04-18 21:38:00,72.9,66.6,29.59,NNE,19,3.6,4.0,80,0.00,,,0.00,VWS V14.01,2013-04-19 01:38:00,
2013-04-18 21:40:00,72.9,66.6,29.59,NNE,12,3.6,4.0,80,0.00,,,0.00,VWS V14.01,2013-04-19 01:40:00,
2013-04-18 21:43:00,72.9,66.6,29.59,NW,308,2.7,3.6,80,0.00,,,0.00,VWS V14.01,2013-04-19 01:43:00,
2013-04-18 21:48:00,72.9,66.6,29.59,NNE,19,3.1,4.0,80,0.00,,,0.00,VWS V14.01,2013-04-19 01:48:00,
2013-04-18 21:53:00,72.9,66.6,29.59,NNE,19,3.1,3.1,80,0.00,,,0.00,VWS V14.01,2013-04-19 01:53:00,
2013-04-18 21:58:00,72.9,66.6,29.59,North,0,3.6,3.6,80,0.00,,,0.00,VWS V14.01,2013-04-19 01:58:00,
2013-04-18 22:00:00,72.9,66.6,29.59,North,0,3.6,3.6,80,0.00,,,0.00,VWS V14.01,2013-04-19 02:00:00,
2013-04-18 22:03:00,72.9,66.6,29.59,North,353,4.0,4.0,80,0.00,,,0.00,VWS V14.01,2013-04-19 02:03:00,
2013-04-18 22:08:00,72.9,66.6,29.59,North,10,2.7,4.0,80,0.00,,,0.00,VWS V14.01,2013-04-19 02:08:00,
2013-04-18 22:13:00,72.9,66.6,29.59,NNE,23,3.6,3.6,80,0.00,,,0.00,VWS V14.01,2013-04-19 02:13:00,
2013-04-18 22:18:00,72.9,66.6,29.59,North,1,3.6,3.6,80,0.00,,,0.00,VWS V14.01,2013-04-19 02:18:00,
2013-04-18 22:20:00,72.9,66.6,29.59,NNW,341,5.8,5.8,80,0.00,,,0.00,VWS V14.01,2013-04-19 02:20:00,
2013-04-18 22:23:00,72.9,66.6,29.59,NE,35,3.6,5.8,80,0.00,,,0.00,VWS V14.01,2013-04-19 02:23:00,
2013-04-18 22:28:00,72.9,66.6,29.59,NW,309,2.7,5.8,80,0.00,,,0.00,VWS V14.01,2013-04-19 02:28:00,
2013-04-18 22:30:00,72.9,66.6,29.59,NW,309,2.7,5.8,80,0.00,,,0.00,VWS V14.01,2013-04-19 02:30:00,
2013-04-18 22:33:00,72.9,66.6,29.59,NW,309,2.7,2.7,80,0.00,,,0.00,VWS V14.01,2013-04-19 02:33:00,
2013-04-18 22:38:00,72.9,66.6,29.59,NNW,339,4.0,4.0,80,0.00,,,0.00,VWS V14.01,2013-04-19 02:38:00,
2013-04-18 22:43:00,72.9,66.6,29.59,NNE,15,0.0,4.0,80,0.00,,,0.00,VWS V14.01,2013-04-19 02:43:00,
2013-04-18 22:48:00,72.9,66.6,29.59,North,1,4.0,5.4,80,0.00,,,0.00,VWS V14.01,2013-04-19 02:48:00,
2013-04-18 22:50:00,72.9,66.6,29.59,North,1,4.0,5.4,80,0.00,,,0.00,VWS V14.01,2013-04-19 02:50:00,
2013-04-18 22:53:00,72.9,66.6,29.59,WNW,291,2.7,4.0,80,0.00,,,0.00,VWS V14.01,2013-04-19 02:53:00,
2013-04-18 22:58:00,72.9,66.6,29.59,North,350,3.6,4.0,80,0.00,,,0.00,VWS V14.01,2013-04-19 02:58:00,
2013-04-18 23:00:00,72.9,66.6,29.59,North,10,2.7,4.0,80,0.00,,,0.00,VWS V14.01,2013-04-19 03:00:00,
2013-04-18 23:03:00,72.9,66.6,29.59,NNE,17,5.4,6.3,80,0.00,,,0.00,VWS V14.01,2013-04-19 03:03:00,
2013-04-18 23:08:00,72.9,66.6,29.59,WNW,303,4.0,6.3,80,0.00,,,0.00,VWS V14.01,2013-04-19 03:08:00,
2013-04-18 23:10:00,72.9,66.6,29.59,WNW,303,4.0,6.3,80,0.00,,,0.00,VWS V14.01,2013-04-19 03:10:00,
2013-04-18 23:13:00,72.9,66.6,29.59,North,5,3.6,4.0,80,0.00,,,0.00,VWS V14.01,2013-04-19 03:13:00,
2013-04-18 23:18:00,72.9,66.6,29.59,NE,37,3.6,4.0,80,0.00,,,0.00,VWS V14.01,2013-04-19 03:18:00,
2013-04-18 23:20:00,72.9,66.6,29.59,NE,37,3.6,4.0,80,0.00,,,0.00,VWS V14.01,2013-04-19 03:20:00,
2013-04-18 23:23:00,72.9,66.6,29.59,NNE,33,4.0,4.0,80,0.00,,,0.00,VWS V14.01,2013-04-19 03:23:00,
2013-04-18 23:28:00,72.9,66.6,29.59,North,353,2.7,4.9,80,0.00,,,0.00,VWS V14.01,2013-04-19 03:28:00,
2013-04-18 23:30:00,72.9,66.6,29.59,North,0,3.6,4.9,80,0.00,,,0.00,VWS V14.01,2013-04-19 03:30:00,
2013-04-18 23:33:00,72.9,66.6,29.56,North,0,3.6,3.6,80,0.00,,,0.00,VWS V14.01,2013-04-19 03:33:00,
2013-04-18 23:38:00,72.9,66.6,29.56,NNW,340,4.9,4.9,80,0.00,,,0.00,VWS V14.01,2013-04-19 03:38:00,
2013-04-18 23:40:00,72.9,66.6,29.56,NNE,16,5.8,5.8,80,0.00,,,0.00,VWS V14.01,2013-04-19 03:40:00,
2013-04-18 23:43:00,72.9,66.6,29.56,NNE,21,3.6,5.8,80,0.00,,,0.00,VWS V14.01,2013-04-19 03:43:00,
2013-04-18 23:48:00,72.9,66.6,29.56,NNE,20,4.9,5.8,80,0.00,,,0.00,VWS V14.01,2013-04-19 03:48:00,
2013-04-18 23:50:00,72.9,66.6,29.56,NNE,20,4.9,5.8,80,0.00,,,0.00,VWS V14.01,2013-04-19 03:50:00,
2013-04-18 23:53:00,72.9,66.6,29.56,North,357,4.0,4.9,80,0.00,,,0.00,VWS V14.01,2013-04-19 03:53:00,
2013-04-18 23:58:00,72.9,66.6,29.56,NNE,19,6.3,6.3,80,0.00,,,0.00,VWS V14.01,2013-04-19 03:58:00,